sensor_id;sensor_type;location;lat;lon;timestamp;pressure;altitude;pressure_sealevel;temperature;humidity
69667;BME280;66534;52.370;4.832;2023-03-25T00:00:13;100016.03;;;8.95;100.00
69667;BME280;66534;52.370;4.832;2023-03-25T00:00:47;100022.41;;;8.90;100.00
69667;BME280;66534;52.370;4.832;2023-03-25T00:01:17;100012.97;;;8.87;100.00
69667;BME280;66534;52.370;4.832;2023-03-25T00:01:49;100024.41;;;8.85;100.00
69667;BME280;66534;52.370;4.832;2023-03-25T00:02:22;100028.81;;;8.84;100.00
69667;BME280;66534;52.370;4.832;2023-03-25T00:02:52;100024.75;;;8.79;100.00
69667;BME280;66534;52.370;4.832;2023-03-25T00:03:24;100021.94;;;8.82;100.00
69667;BME280;66534;52.370;4.832;2023-03-25T00:03:55;100029.19;;;8.77;100.00
69667;BME280;66534;52.370;4.832;2023-03-25T00:04:27;100025.81;;;8.75;100.00
69667;BME280;66534;52.370;4.832;2023-03-25T00:04:57;100030.25;;;8.72;100.00
69667;BME280;66534;52.370;4.832;2023-03-25T00:05:29;100025.13;;;8.71;100.00
69667;BME280;66534;52.370;4.832;2023-03-25T00:06:00;100024.19;;;8.72;100.00
69667;BME280;66534;52.370;4.832;2023-03-25T00:06:31;100026.88;;;8.70;100.00
69667;BME280;66534;52.370;4.832;2023-03-25T00:07:04;100026.03;;;8.70;100.00
69667;BME280;66534;52.370;4.832;2023-03-25T00:07:35;100023.34;;;8.71;100.00
69667;BME280;66534;52.370;4.832;2023-03-25T00:08:06;100024.09;;;8.73;100.00
69667;BME280;66534;52.370;4.832;2023-03-25T00:08:36;100035.66;;;8.69;100.00
69667;BME280;66534;52.370;4.832;2023-03-25T00:09:07;100024.97;;;8.74;100.00
69667;BME280;66534;52.370;4.832;2023-03-25T00:09:37;100006.91;;;8.69;100.00
69667;BME280;66534;52.370;4.832;2023-03-25T00:10:08;100020.81;;;8.70;100.00
69667;BME280;66534;52.370;4.832;2023-03-25T00:10:39;100019.09;;;8.69;100.00
69667;BME280;66534;52.370;4.832;2023-03-25T00:11:10;100024.28;;;8.70;100.00
69667;BME280;66534;52.370;4.832;2023-03-25T00:11:41;100026.03;;;8.70;100.00
69667;BME280;66534;52.370;4.832;2023-03-25T00:12:11;100019.19;;;8.67;100.00
69667;BME280;66534;52.370;4.832;2023-03-25T00:12:41;100025.19;;;8.69;100.00
69667;BME280;66534;52.370;4.832;2023-03-25T00:13:12;100020.63;;;8.73;100.00
69667;BME280;66534;52.370;4.832;2023-03-25T00:13:42;100022.41;;;8.72;100.00
69667;BME280;66534;52.370;4.832;2023-03-25T00:14:13;100023.34;;;8.71;100.00
69667;BME280;66534;52.370;4.832;2023-03-25T00:14:46;100028.44;;;8.75;100.00
69667;BME280;66534;52.370;4.832;2023-03-25T00:15:23;100015.41;;;8.73;100.00
69667;BME280;66534;52.370;4.832;2023-03-25T00:15:53;100020.50;;;8.76;100.00
69667;BME280;66534;52.370;4.832;2023-03-25T00:16:27;100019.66;;;8.76;100.00
69667;BME280;66534;52.370;4.832;2023-03-25T00:16:57;100015.97;;;8.80;100.00
69667;BME280;66534;52.370;4.832;2023-03-25T00:17:30;100027.25;;;8.80;100.00
69667;BME280;66534;52.370;4.832;2023-03-25T00:18:00;100007.13;;;8.82;100.00
69667;BME280;66534;52.370;4.832;2023-03-25T00:18:31;100025.34;;;8.84;100.00
69667;BME280;66534;52.370;4.832;2023-03-25T00:19:02;100020.03;;;8.85;100.00
69667;BME280;66534;52.370;4.832;2023-03-25T00:19:33;100017.41;;;8.85;100.00
69667;BME280;66534;52.370;4.832;2023-03-25T00:20:05;100024.50;;;8.83;100.00
69667;BME280;66534;52.370;4.832;2023-03-25T00:20:38;100013.94;;;8.85;100.00
69667;BME280;66534;52.370;4.832;2023-03-25T00:21:10;100016.56;;;8.85;100.00
69667;BME280;66534;52.370;4.832;2023-03-25T00:21:40;100027.88;;;8.85;100.00
69667;BME280;66534;52.370;4.832;2023-03-25T00:22:13;100016.56;;;8.85;100.00
69667;BME280;66534;52.370;4.832;2023-03-25T00:22:44;100014.75;;;8.87;100.00
69667;BME280;66534;52.370;4.832;2023-03-25T00:23:15;100019.97;;;8.87;100.00
69667;BME280;66534;52.370;4.832;2023-03-25T00:23:46;100021.75;;;8.86;100.00
69667;BME280;66534;52.370;4.832;2023-03-25T00:24:17;100023.28;;;8.90;100.00
69667;BME280;66534;52.370;4.832;2023-03-25T00:24:47;100017.25;;;8.88;100.00
69667;BME280;66534;52.370;4.832;2023-03-25T00:25:18;100018.94;;;8.89;100.00
69667;BME280;66534;52.370;4.832;2023-03-25T00:25:50;100004.09;;;8.90;100.00
69667;BME280;66534;52.370;4.832;2023-03-25T00:26:21;100025.13;;;8.88;100.00
69667;BME280;66534;52.370;4.832;2023-03-25T00:26:52;100011.09;;;8.89;100.00
69667;BME280;66534;52.370;4.832;2023-03-25T00:27:23;100015.34;;;8.92;100.00
69667;BME280;66534;52.370;4.832;2023-03-25T00:27:53;100017.13;;;8.91;100.00
69667;BME280;66534;52.370;4.832;2023-03-25T00:28:24;100002.34;;;8.90;100.00
69667;BME280;66534;52.370;4.832;2023-03-25T00:28:59;100015.19;;;8.95;100.00
69667;BME280;66534;52.370;4.832;2023-03-25T00:29:30;99999.75;;;8.90;100.00
69667;BME280;66534;52.370;4.832;2023-03-25T00:30:00;100007.34;;;8.95;100.00
69667;BME280;66534;52.370;4.832;2023-03-25T00:30:31;100011.56;;;8.97;100.00
69667;BME280;66534;52.370;4.832;2023-03-25T00:31:03;100008.09;;;8.97;100.00
69667;BME280;66534;52.370;4.832;2023-03-25T00:31:36;100001.19;;;8.96;100.00
69667;BME280;66534;52.370;4.832;2023-03-25T00:32:06;100014.13;;;8.99;100.00
69667;BME280;66534;52.370;4.832;2023-03-25T00:32:37;99992.94;;;9.04;100.00
69667;BME280;66534;52.370;4.832;2023-03-25T00:33:08;100006.03;;;9.04;100.00
69667;BME280;66534;52.370;4.832;2023-03-25T00:33:40;100000.81;;;9.04;100.00
69667;BME280;66534;52.370;4.832;2023-03-25T00:34:10;100006.94;;;9.03;100.00
69667;BME280;66534;52.370;4.832;2023-03-25T00:34:43;99997.41;;;9.02;100.00
69667;BME280;66534;52.370;4.832;2023-03-25T00:35:16;100004.50;;;9.00;100.00
69667;BME280;66534;52.370;4.832;2023-03-25T00:35:50;99975.72;;;9.00;100.00
69667;BME280;66534;52.370;4.832;2023-03-25T00:36:23;100000.84;;;9.02;100.00
69667;BME280;66534;52.370;4.832;2023-03-25T00:36:53;100004.31;;;9.03;100.00
69667;BME280;66534;52.370;4.832;2023-03-25T00:37:25;100005.25;;;9.02;100.00
69667;BME280;66534;52.370;4.832;2023-03-25T00:37:56;100012.16;;;9.03;100.00
69667;BME280;66534;52.370;4.832;2023-03-25T00:38:29;99997.50;;;9.00;100.00
69667;BME280;66534;52.370;4.832;2023-03-25T00:39:04;100009.53;;;9.03;100.00
69667;BME280;66534;52.370;4.832;2023-03-25T00:39:37;99995.56;;;9.04;100.00
69667;BME280;66534;52.370;4.832;2023-03-25T00:40:08;100012.84;;;9.06;100.00
69667;BME280;66534;52.370;4.832;2023-03-25T00:40:40;99996.31;;;9.06;100.00
69667;BME280;66534;52.370;4.832;2023-03-25T00:41:12;100001.63;;;9.04;100.00
69667;BME280;66534;52.370;4.832;2023-03-25T00:41:46;100003.19;;;9.08;100.00
69667;BME280;66534;52.370;4.832;2023-03-25T00:42:17;100002.34;;;9.08;100.00
69667;BME280;66534;52.370;4.832;2023-03-25T00:42:55;100001.56;;;9.06;100.00
69667;BME280;66534;52.370;4.832;2023-03-25T00:43:26;100000.56;;;9.08;100.00
69667;BME280;66534;52.370;4.832;2023-03-25T00:43:57;99999.72;;;9.08;100.00
69667;BME280;66534;52.370;4.832;2023-03-25T00:44:29;100002.41;;;9.06;100.00
69667;BME280;66534;52.370;4.832;2023-03-25T00:45:00;99991.88;;;9.08;100.00
69667;BME280;66534;52.370;4.832;2023-03-25T00:45:31;99999.53;;;9.11;100.00
69667;BME280;66534;52.370;4.832;2023-03-25T00:46:02;100007.38;;;9.11;100.00
69667;BME280;66534;52.370;4.832;2023-03-25T00:46:33;99991.09;;;9.06;100.00
69667;BME280;66534;52.370;4.832;2023-03-25T00:47:06;99998.00;;;9.07;100.00
69667;BME280;66534;52.370;4.832;2023-03-25T00:47:37;99991.03;;;9.07;100.00
69667;BME280;66534;52.370;4.832;2023-03-25T00:48:07;99991.19;;;9.04;100.00
69667;BME280;66534;52.370;4.832;2023-03-25T00:48:38;100006.88;;;9.04;100.00
69667;BME280;66534;52.370;4.832;2023-03-25T00:49:08;100005.94;;;9.05;100.00
69667;BME280;66534;52.370;4.832;2023-03-25T00:49:39;99994.63;;;9.05;100.00
69667;BME280;66534;52.370;4.832;2023-03-25T00:50:10;99993.66;;;9.07;100.00
69667;BME280;66534;52.370;4.832;2023-03-25T00:50:41;100000.63;;;9.07;100.00
69667;BME280;66534;52.370;4.832;2023-03-25T00:51:11;99992.78;;;9.07;100.00
69667;BME280;66534;52.370;4.832;2023-03-25T00:51:43;99991.03;;;9.07;100.00
69667;BME280;66534;52.370;4.832;2023-03-25T00:52:14;99990.94;;;9.09;100.00
69667;BME280;66534;52.370;4.832;2023-03-25T00:52:45;99986.44;;;9.11;100.00
69667;BME280;66534;52.370;4.832;2023-03-25T00:53:15;99986.63;;;9.08;100.00
69667;BME280;66534;52.370;4.832;2023-03-25T00:53:46;99985.78;;;9.07;100.00
69667;BME280;66534;52.370;4.832;2023-03-25T00:54:21;100001.41;;;9.09;100.00
69667;BME280;66534;52.370;4.832;2023-03-25T00:54:52;99987.38;;;9.10;100.00
69667;BME280;66534;52.370;4.832;2023-03-25T00:55:23;100001.25;;;9.12;100.00
69667;BME280;66534;52.370;4.832;2023-03-25T00:55:56;99996.06;;;9.10;100.00
69667;BME280;66534;52.370;4.832;2023-03-25T00:56:28;99992.47;;;9.13;100.00
69667;BME280;66534;52.370;4.832;2023-03-25T00:56:59;99976.00;;;9.11;100.00
69667;BME280;66534;52.370;4.832;2023-03-25T00:57:30;99982.94;;;9.12;100.00
69667;BME280;66534;52.370;4.832;2023-03-25T00:58:01;99996.03;;;9.12;100.00
69667;BME280;66534;52.370;4.832;2023-03-25T00:58:32;99985.69;;;9.09;100.00
69667;BME280;66534;52.370;4.832;2023-03-25T00:59:03;99982.94;;;9.12;100.00
69667;BME280;66534;52.370;4.832;2023-03-25T00:59:33;99988.16;;;9.12;100.00
69667;BME280;66534;52.370;4.832;2023-03-25T01:00:04;99992.56;;;9.11;100.00
69667;BME280;66534;52.370;4.832;2023-03-25T01:00:37;99988.16;;;9.12;100.00
69667;BME280;66534;52.370;4.832;2023-03-25T01:01:11;99990.69;;;9.13;100.00
69667;BME280;66534;52.370;4.832;2023-03-25T01:01:43;99999.53;;;9.11;100.00
69667;BME280;66534;52.370;4.832;2023-03-25T01:02:15;99969.66;;;9.15;100.00
69667;BME280;66534;52.370;4.832;2023-03-25T01:02:48;99981.06;;;9.14;100.00
69667;BME280;66534;52.370;4.832;2023-03-25T01:03:23;99982.69;;;9.16;100.00
69667;BME280;66534;52.370;4.832;2023-03-25T01:03:55;99987.97;;;9.15;100.00
69667;BME280;66534;52.370;4.832;2023-03-25T01:04:29;99985.47;;;9.13;100.00
69667;BME280;66534;52.370;4.832;2023-03-25T01:04:59;99977.69;;;9.12;100.00
69667;BME280;66534;52.370;4.832;2023-03-25T01:05:30;99976.78;;;9.13;100.00
69667;BME280;66534;52.370;4.832;2023-03-25T01:06:01;99980.06;;;9.16;100.00
69667;BME280;66534;52.370;4.832;2023-03-25T01:06:33;99970.50;;;9.15;100.00
69667;BME280;66534;52.370;4.832;2023-03-25T01:07:04;99991.53;;;9.14;100.00
69667;BME280;66534;52.370;4.832;2023-03-25T01:07:36;99983.59;;;9.15;100.00
69667;BME280;66534;52.370;4.832;2023-03-25T01:08:07;99981.06;;;9.14;100.00
69667;BME280;66534;52.370;4.832;2023-03-25T01:08:38;99983.78;;;9.12;100.00
69667;BME280;66534;52.370;4.832;2023-03-25T01:09:11;99987.09;;;9.16;100.00
69667;BME280;66534;52.370;4.832;2023-03-25T01:09:43;99991.53;;;9.14;100.00
69667;BME280;66534;52.370;4.832;2023-03-25T01:10:16;99989.75;;;9.14;100.00
69667;BME280;66534;52.370;4.832;2023-03-25T01:10:46;99984.47;;;9.16;100.00
69667;BME280;66534;52.370;4.832;2023-03-25T01:11:21;99981.59;;;9.20;100.00
69667;BME280;66534;52.370;4.832;2023-03-25T01:11:54;99983.53;;;9.17;100.00
69667;BME280;66534;52.370;4.832;2023-03-25T01:12:25;99982.75;;;9.15;100.00
69667;BME280;66534;52.370;4.832;2023-03-25T01:12:56;99989.00;;;9.12;100.00
69667;BME280;66534;52.370;4.832;2023-03-25T01:13:27;100004.63;;;9.14;100.00
69667;BME280;66534;52.370;4.832;2023-03-25T01:13:57;99992.47;;;9.13;100.00
69667;BME280;66534;52.370;4.832;2023-03-25T01:14:30;99977.63;;;9.13;100.00
69667;BME280;66534;52.370;4.832;2023-03-25T01:15:01;99982.69;;;9.16;100.00
69667;BME280;66534;52.370;4.832;2023-03-25T01:15:31;99992.22;;;9.17;100.00
69667;BME280;66534;52.370;4.832;2023-03-25T01:16:05;99985.22;;;9.18;100.00
69667;BME280;66534;52.370;4.832;2023-03-25T01:16:36;100001.69;;;9.20;100.00
69667;BME280;66534;52.370;4.832;2023-03-25T01:17:07;99995.78;;;9.16;100.00
69667;BME280;66534;52.370;4.832;2023-03-25T01:17:37;99987.84;;;9.18;100.00
69667;BME280;66534;52.370;4.832;2023-03-25T01:18:08;99998.31;;;9.18;100.00
69667;BME280;66534;52.370;4.832;2023-03-25T01:18:38;99992.22;;;9.17;100.00
69667;BME280;66534;52.370;4.832;2023-03-25T01:19:09;99999.22;;;9.17;100.00
69667;BME280;66534;52.370;4.832;2023-03-25T01:19:40;99999.28;;;9.15;100.00
69667;BME280;66534;52.370;4.832;2023-03-25T01:20:11;99997.56;;;9.16;100.00
69667;BME280;66534;52.370;4.832;2023-03-25T01:20:42;99992.31;;;9.16;100.00
69667;BME280;66534;52.370;4.832;2023-03-25T01:21:12;99987.84;;;9.18;100.00
69667;BME280;66534;52.370;4.832;2023-03-25T01:21:43;99991.22;;;9.20;100.00
69667;BME280;66534;52.370;4.832;2023-03-25T01:22:14;99989.50;;;9.19;100.00
69667;BME280;66534;52.370;4.832;2023-03-25T01:22:44;100001.84;;;9.17;100.00
69667;BME280;66534;52.370;4.832;2023-03-25T01:23:15;100006.31;;;9.15;100.00
69667;BME280;66534;52.370;4.832;2023-03-25T01:23:45;99993.16;;;9.16;100.00
69667;BME280;66534;52.370;4.832;2023-03-25T01:24:16;99993.16;;;9.16;100.00
69667;BME280;66534;52.370;4.832;2023-03-25T01:24:47;99996.84;;;9.12;100.00
69667;BME280;66534;52.370;4.832;2023-03-25T01:25:17;99986.63;;;9.08;100.00
69667;BME280;66534;52.370;4.832;2023-03-25T01:25:48;99994.53;;;9.06;100.00
69667;BME280;66534;52.370;4.832;2023-03-25T01:26:18;99998.00;;;9.07;100.00
69667;BME280;66534;52.370;4.832;2023-03-25T01:26:49;100002.47;;;9.05;100.00
69667;BME280;66534;52.370;4.832;2023-03-25T01:27:19;100004.16;;;9.06;100.00
69667;BME280;66534;52.370;4.832;2023-03-25T01:27:49;99995.47;;;9.05;100.00
69667;BME280;66534;52.370;4.832;2023-03-25T01:28:20;99988.47;;;9.06;100.00
69667;BME280;66534;52.370;4.832;2023-03-25T01:28:50;99989.41;;;9.05;100.00
69667;BME280;66534;52.370;4.832;2023-03-25T01:29:22;100000.00;;;9.02;100.00
69667;BME280;66534;52.370;4.832;2023-03-25T01:29:53;99992.09;;;9.03;100.00
69667;BME280;66534;52.370;4.832;2023-03-25T01:30:24;99997.25;;;9.05;100.00
69667;BME280;66534;52.370;4.832;2023-03-25T01:31:01;99986.88;;;9.03;100.00
69667;BME280;66534;52.370;4.832;2023-03-25T01:31:33;99991.09;;;9.06;100.00
69667;BME280;66534;52.370;4.832;2023-03-25T01:32:04;99984.25;;;9.03;100.00
69667;BME280;66534;52.370;4.832;2023-03-25T01:32:35;99995.38;;;9.07;100.00
69667;BME280;66534;52.370;4.832;2023-03-25T01:33:05;99997.16;;;9.06;100.00
69667;BME280;66534;52.370;4.832;2023-03-25T01:33:36;99985.78;;;9.07;100.00
69667;BME280;66534;52.370;4.832;2023-03-25T01:34:07;99990.34;;;9.04;100.00
69667;BME280;66534;52.370;4.832;2023-03-25T01:34:38;99992.94;;;9.04;100.00
69667;BME280;66534;52.370;4.832;2023-03-25T01:35:08;99989.50;;;9.03;100.00
69667;BME280;66534;52.370;4.832;2023-03-25T01:35:41;99992.09;;;9.03;100.00
69667;BME280;66534;52.370;4.832;2023-03-25T01:36:11;99992.94;;;9.04;100.00
69667;BME280;66534;52.370;4.832;2023-03-25T01:36:42;99994.53;;;9.06;100.00
69667;BME280;66534;52.370;4.832;2023-03-25T01:37:15;99989.94;;;9.11;100.00
69667;BME280;66534;52.370;4.832;2023-03-25T01:37:47;99988.06;;;9.13;100.00
69667;BME280;66534;52.370;4.832;2023-03-25T01:38:17;99976.88;;;9.11;100.00
69667;BME280;66534;52.370;4.832;2023-03-25T01:38:49;99988.16;;;9.12;100.00
69667;BME280;66534;52.370;4.832;2023-03-25T01:39:20;99982.69;;;9.16;100.00
69667;BME280;66534;52.370;4.832;2023-03-25T01:39:51;99980.91;;;9.17;100.00
69667;BME280;66534;52.370;4.832;2023-03-25T01:40:22;99987.97;;;9.15;100.00
69667;BME280;66534;52.370;4.832;2023-03-25T01:40:53;99980.31;;;9.12;100.00
69667;BME280;66534;52.370;4.832;2023-03-25T01:41:24;99984.63;;;9.13;100.00
69667;BME280;66534;52.370;4.832;2023-03-25T01:41:56;99962.91;;;9.11;100.00
69667;BME280;66534;52.370;4.832;2023-03-25T01:42:26;99982.94;;;9.12;100.00
69667;BME280;66534;52.370;4.832;2023-03-25T01:42:57;99988.81;;;9.15;100.00
69667;BME280;66534;52.370;4.832;2023-03-25T01:43:27;99969.00;;;9.11;100.00
69667;BME280;66534;52.370;4.832;2023-03-25T01:43:59;99971.69;;;9.10;100.00
69667;BME280;66534;52.370;4.832;2023-03-25T01:45:32;99978.53;;;9.12;100.00
69667;BME280;66534;52.370;4.832;2023-03-25T01:45:58;99967.31;;;9.10;100.00
69667;BME280;66534;52.370;4.832;2023-03-25T01:46:29;99977.00;;;9.08;100.00
69667;BME280;66534;52.370;4.832;2023-03-25T01:46:59;99974.25;;;9.11;100.00
69667;BME280;66534;52.370;4.832;2023-03-25T01:47:34;99969.84;;;9.12;100.00
69667;BME280;66534;52.370;4.832;2023-03-25T01:48:05;99980.38;;;9.10;100.00
69667;BME280;66534;52.370;4.832;2023-03-25T01:48:40;99966.59;;;9.07;100.00
69667;BME280;66534;52.370;4.832;2023-03-25T01:49:32;99965.75;;;9.06;100.00
69667;BME280;66534;52.370;4.832;2023-03-25T01:50:08;99991.03;;;9.07;100.00
69667;BME280;66534;52.370;4.832;2023-03-25T01:50:44;99971.84;;;9.07;100.00
69667;BME280;66534;52.370;4.832;2023-03-25T01:51:23;99979.88;;;9.04;100.00
69667;BME280;66534;52.370;4.832;2023-03-25T01:52:04;99983.19;;;9.07;100.00
69667;BME280;66534;52.370;4.832;2023-03-25T01:52:38;99957.91;;;9.06;100.00
69667;BME280;66534;52.370;4.832;2023-03-25T01:53:08;99982.41;;;9.05;100.00
69667;BME280;66534;52.370;4.832;2023-03-25T01:53:39;99976.22;;;9.06;100.00
69667;BME280;66534;52.370;4.832;2023-03-25T01:54:11;99976.22;;;9.06;100.00
69667;BME280;66534;52.370;4.832;2023-03-25T01:54:47;99982.16;;;9.10;100.00
69667;BME280;66534;52.370;4.832;2023-03-25T01:55:21;99970.84;;;9.09;100.00
69667;BME280;66534;52.370;4.832;2023-03-25T01:55:53;99983.78;;;9.12;100.00
69667;BME280;66534;52.370;4.832;2023-03-25T01:56:27;99973.38;;;9.11;100.00
69667;BME280;66534;52.370;4.832;2023-03-25T01:57:01;99963.84;;;9.10;100.00
69667;BME280;66534;52.370;4.832;2023-03-25T01:57:32;99975.16;;;9.10;100.00
69667;BME280;66534;52.370;4.832;2023-03-25T01:58:09;99969.00;;;9.11;100.00
69667;BME280;66534;52.370;4.832;2023-03-25T01:58:45;99975.00;;;9.13;100.00
69667;BME280;66534;52.370;4.832;2023-03-25T01:59:17;99972.47;;;9.12;100.00
69667;BME280;66534;52.370;4.832;2023-03-25T01:59:50;99982.25;;;9.08;100.00
69667;BME280;66534;52.370;4.832;2023-03-25T02:00:24;99969.91;;;9.10;100.00
69667;BME280;66534;52.370;4.832;2023-03-25T02:00:55;99990.78;;;9.12;100.00
69667;BME280;66534;52.370;4.832;2023-03-25T02:01:26;99979.47;;;9.11;100.00
69667;BME280;66534;52.370;4.832;2023-03-25T02:01:58;99976.53;;;9.17;100.00
69667;BME280;66534;52.370;4.832;2023-03-25T02:02:32;99971.44;;;9.14;100.00
69667;BME280;66534;52.370;4.832;2023-03-25T02:03:05;99993.31;;;9.13;100.00
69667;BME280;66534;52.370;4.832;2023-03-25T02:03:40;99975.94;;;9.12;100.00
69667;BME280;66534;52.370;4.832;2023-03-25T02:04:15;99971.53;;;9.13;100.00
69667;BME280;66534;52.370;4.832;2023-03-25T02:04:57;99983.69;;;9.14;100.00
69667;BME280;66534;52.370;4.832;2023-03-25T02:05:35;99986.41;;;9.12;100.00
69667;BME280;66534;52.370;4.832;2023-03-25T02:06:10;99977.69;;;9.12;100.00
69667;BME280;66534;52.370;4.832;2023-03-25T02:06:49;99979.53;;;9.10;100.00
69667;BME280;66534;52.370;4.832;2023-03-25T02:07:23;99973.38;;;9.11;100.00
69667;BME280;66534;52.370;4.832;2023-03-25T02:08:00;99968.13;;;9.11;100.00
69667;BME280;66534;52.370;4.832;2023-03-25T02:08:34;99979.38;;;9.13;100.00
69667;BME280;66534;52.370;4.832;2023-03-25T02:09:08;99975.84;;;9.14;100.00
69667;BME280;66534;52.370;4.832;2023-03-25T02:09:42;99975.84;;;9.14;100.00
69667;BME280;66534;52.370;4.832;2023-03-25T02:10:13;99978.38;;;9.15;100.00
69667;BME280;66534;52.370;4.832;2023-03-25T02:10:44;99975.09;;;9.12;100.00
69667;BME280;66534;52.370;4.832;2023-03-25T02:11:16;99976.69;;;9.14;100.00
69667;BME280;66534;52.370;4.832;2023-03-25T02:11:46;99983.84;;;9.11;100.00
69667;BME280;66534;52.370;4.832;2023-03-25T02:12:17;99966.22;;;9.14;100.00
69667;BME280;66534;52.370;4.832;2023-03-25T02:12:48;99976.44;;;9.19;100.00
69667;BME280;66534;52.370;4.832;2023-03-25T02:13:19;99924.97;;;8.86;100.00
69667;BME280;66534;52.370;4.832;2023-03-25T02:13:50;99970.59;;;9.14;100.00
69667;BME280;66534;52.370;4.832;2023-03-25T02:14:21;99975.00;;;9.13;100.00
69667;BME280;66534;52.370;4.832;2023-03-25T02:14:56;99984.72;;;9.11;100.00
69667;BME280;66534;52.370;4.832;2023-03-25T02:15:34;99964.00;;;9.07;100.00
69667;BME280;66534;52.370;4.832;2023-03-25T02:18:05;99978.78;;;9.08;100.00
69667;BME280;66534;52.370;4.832;2023-03-25T02:23:12;99965.72;;;9.08;100.00
69667;BME280;66534;52.370;4.832;2023-03-25T02:28:47;99971.53;;;9.13;100.00
69667;BME280;66534;52.370;4.832;2023-03-25T02:29:59;99973.22;;;9.14;100.00
69667;BME280;66534;52.370;4.832;2023-03-25T02:33:51;99970.69;;;9.12;100.00
69667;BME280;66534;52.370;4.832;2023-03-25T02:36:00;99962.06;;;9.10;100.00
69667;BME280;66534;52.370;4.832;2023-03-25T02:36:59;99970.75;;;9.11;100.00
69667;BME280;66534;52.370;4.832;2023-03-25T02:37:54;99962.16;;;9.09;100.00
69667;BME280;66534;52.370;4.832;2023-03-25T02:38:50;99950.34;;;9.17;100.00
69667;BME280;66534;52.370;4.832;2023-03-25T02:40:17;99951.59;;;9.10;100.00
69667;BME280;66534;52.370;4.832;2023-03-25T02:40:55;99969.16;;;9.08;100.00
69667;BME280;66534;52.370;4.832;2023-03-25T02:41:50;99951.94;;;9.04;100.00
69667;BME280;66534;52.370;4.832;2023-03-25T02:43:02;99957.22;;;9.03;100.00
69667;BME280;66534;52.370;4.832;2023-03-25T02:43:50;99950.16;;;9.05;100.00
69667;BME280;66534;52.370;4.832;2023-03-25T02:45:29;99952.69;;;9.06;100.00
69667;BME280;66534;52.370;4.832;2023-03-25T02:46:05;99957.91;;;9.06;100.00
69667;BME280;66534;52.370;4.832;2023-03-25T02:46:44;99961.31;;;9.08;100.00
69667;BME280;66534;52.370;4.832;2023-03-25T02:47:21;99947.63;;;9.03;100.00
69667;BME280;66534;52.370;4.832;2023-03-25T02:47:57;99956.16;;;9.07;100.00
69667;BME280;66534;52.370;4.832;2023-03-25T02:48:39;99940.63;;;9.04;100.00
69667;BME280;66534;52.370;4.832;2023-03-25T02:49:21;99956.38;;;9.02;100.00
69667;BME280;66534;52.370;4.832;2023-03-25T02:49:56;99950.16;;;9.05;100.00
69667;BME280;66534;52.370;4.832;2023-03-25T02:50:40;99951.25;;;9.01;100.00
69667;BME280;66534;52.370;4.832;2023-03-25T02:51:17;99954.69;;;9.01;100.00
69667;BME280;66534;52.370;4.832;2023-03-25T02:51:59;99959.69;;;9.06;100.00
69667;BME280;66534;52.370;4.832;2023-03-25T02:52:35;99942.31;;;9.05;100.00
69667;BME280;66534;52.370;4.832;2023-03-25T02:53:09;99962.31;;;9.06;100.00
69667;BME280;66534;52.370;4.832;2023-03-25T02:53:45;99949.91;;;9.09;100.00
69667;BME280;66534;52.370;4.832;2023-03-25T02:54:20;99967.63;;;9.04;100.00
69667;BME280;66534;52.370;4.832;2023-03-25T02:54:54;99963.84;;;9.10;100.00
69667;BME280;66534;52.370;4.832;2023-03-25T02:55:30;99954.47;;;9.06;100.00
69667;BME280;66534;52.370;4.832;2023-03-25T02:56:03;99958.69;;;9.08;100.00
69667;BME280;66534;52.370;4.832;2023-03-25T02:56:39;99946.56;;;9.07;100.00
69667;BME280;66534;52.370;4.832;2023-03-25T02:57:14;99953.47;;;9.08;100.00
69667;BME280;66534;52.370;4.832;2023-03-25T02:57:49;99950.00;;;9.08;100.00
69667;BME280;66534;52.370;4.832;2023-03-25T02:58:23;99950.84;;;9.08;100.00
69667;BME280;66534;52.370;4.832;2023-03-25T02:58:54;99943.69;;;9.12;100.00
69667;BME280;66534;52.370;4.832;2023-03-25T02:59:27;99955.25;;;9.08;100.00
69667;BME280;66534;52.370;4.832;2023-03-25T03:00:02;99939.31;;;9.12;100.00
69667;BME280;66534;52.370;4.832;2023-03-25T03:00:41;99952.53;;;9.09;100.00
69667;BME280;66534;52.370;4.832;2023-03-25T03:01:12;99936.84;;;9.09;100.00
69667;BME280;66534;52.370;4.832;2023-03-25T03:01:43;99940.13;;;9.13;100.00
69667;BME280;66534;52.370;4.832;2023-03-25T03:02:14;99943.34;;;9.18;100.00
69667;BME280;66534;52.370;4.832;2023-03-25T03:02:49;99940.13;;;9.13;100.00
69667;BME280;66534;52.370;4.832;2023-03-25T03:03:22;99945.38;;;9.13;100.00
69667;BME280;66534;52.370;4.832;2023-03-25T03:03:53;99944.44;;;9.14;100.00
69667;BME280;66534;52.370;4.832;2023-03-25T03:04:25;99941.97;;;9.11;100.00
69667;BME280;66534;52.370;4.832;2023-03-25T03:04:55;99941.22;;;9.09;100.00
69667;BME280;66534;52.370;4.832;2023-03-25T03:05:58;99948.13;;;9.10;100.00
69667;BME280;66534;52.370;4.832;2023-03-25T03:06:31;99941.06;;;9.12;100.00
69667;BME280;66534;52.370;4.832;2023-03-25T03:07:08;99939.53;;;9.08;100.00
69667;BME280;66534;52.370;4.832;2023-03-25T03:07:39;99951.78;;;9.07;100.00
69667;BME280;66534;52.370;4.832;2023-03-25T03:09:17;99940.78;;;9.01;100.00
69667;BME280;66534;52.370;4.832;2023-03-25T03:10:15;99931.06;;;9.03;100.00
69667;BME280;66534;52.370;4.832;2023-03-25T03:10:56;99933.94;;;8.98;100.00
69667;BME280;66534;52.370;4.832;2023-03-25T03:16:55;99933.19;;;8.96;100.00
69667;BME280;66534;52.370;4.832;2023-03-25T03:17:45;99935.69;;;8.97;100.00
69667;BME280;66534;52.370;4.832;2023-03-25T03:21:14;99930.56;;;8.96;100.00
69667;BME280;66534;52.370;4.832;2023-03-25T03:24:35;99939.25;;;8.96;100.00
69667;BME280;66534;52.370;4.832;2023-03-25T03:25:16;99949.13;;;8.91;100.00
69667;BME280;66534;52.370;4.832;2023-03-25T03:26:04;99958.50;;;8.95;100.00
69667;BME280;66534;52.370;4.832;2023-03-25T03:26:43;99941.09;;;8.94;100.00
69667;BME280;66534;52.370;4.832;2023-03-25T03:27:58;99931.50;;;8.95;100.00
69667;BME280;66534;52.370;4.832;2023-03-25T03:28:45;99933.88;;;9.00;100.00